Time;durP1;ratioP1;P1;durP2;ratioP2;P2;SDS_P1;SDS_P2;PMS_P1;PMS_P2;Temp;Humidity;BMP_temperature;BMP_pressure;BME280_temperature;BME280_humidity;BME280_pressure;Samples;Min_cycle;Max_cycle;Signal;HPM_P1;HPM_P2
2021/12/16 00:11:01;;;;;;;8.55;7.15;;;;;;;;;;5064930;28;20060;-34
2021/12/16 00:33:32;;;;;;;10.55;8.30;;;;;;;;;;5060834;28;20079;-34
2021/12/16 00:35:58;;;;;;;11.38;6.95;;;;;;;;;;5068827;28;20937;-29
2021/12/16 00:38:24;;;;;;;9.85;7.75;;;;;;;;;;5068780;28;20047;-34
2021/12/16 00:40:49;;;;;;;9.63;6.95;;;;;;;;;;5068362;28;20517;-29
2021/12/16 00:43:25;;;;;;;9.70;7.40;;;;;;;;;;5068296;28;20032;-32
2021/12/16 00:55:55;;;;;;;9.40;7.28;;;;;;;;;;5068456;28;20414;-35
2021/12/16 00:58:28;;;;;;;10.20;7.50;;;;;;;;;;5068433;28;20059;-33
2021/12/16 01:01:02;;;;;;;9.13;7.40;;;;;;;;;;5069699;28;20035;-33
2021/12/16 01:03:36;;;;;;;9.60;7.75;;;;;;;;;;5088654;28;20052;-33
2021/12/16 01:57:07;;;;;;;9.05;6.93;;;;;;;;;;5087389;28;20063;-31
2021/12/16 01:59:35;;;;;;;9.80;7.18;;;;;;;;;;5087342;28;20050;-27
2021/12/16 02:02:26;;;;;;;8.27;6.78;;;;;;;;;;5087198;28;20419;-28
2021/12/16 02:05:23;;;;;;;8.07;6.80;;;;;;;;;;5087318;28;20526;-29
2021/12/16 02:10:22;;;;;;;8.45;6.78;;;;;;;;;;5086983;28;20062;-32
2021/12/16 02:36:46;;;;;;;10.05;7.22;;;;;;;;;;5086567;28;20108;-27
2021/12/16 02:39:19;;;;;;;8.48;6.80;;;;;;;;;;5086745;28;20020;-33
2021/12/16 02:41:45;;;;;;;7.57;6.35;;;;;;;;;;5086433;28;20027;-30
2021/12/16 02:49:25;;;;;;;9.38;6.80;;;;;;;;;;5071229;28;20059;-29
2021/12/16 02:51:51;;;;;;;8.48;6.63;;;;;;;;;;5086716;28;20541;-29
2021/12/16 02:54:17;;;;;;;9.43;6.40;;;;;;;;;;5086559;28;20028;-31
2021/12/16 02:56:42;;;;;;;8.35;6.57;;;;;;;;;;5086102;28;20032;-31
2021/12/16 02:59:09;;;;;;;7.47;6.18;;;;;;;;;;5086582;28;20447;-32
2021/12/16 03:01:55;;;;;;;6.60;5.78;;;;;;;;;;5084635;28;20028;-28
2021/12/16 03:04:21;;;;;;;8.55;6.40;;;;;;;;;;5084966;28;20028;-28
2021/12/16 03:06:49;;;;;;;8.52;6.85;;;;;;;;;;5084906;28;20024;-33
2021/12/16 03:09:17;;;;;;;7.53;6.32;;;;;;;;;;5086175;28;20142;-27
2021/12/16 03:12:31;;;;;;;7.80;6.20;;;;;;;;;;5085863;28;20119;-29
2021/12/16 03:14:54;;;;;;;;;;;;;;;;;;5086189;28;20094;-31
2021/12/16 03:20:14;;;;;;;8.00;6.88;;;;;;;;;;5056875;28;20040;-29
2021/12/16 03:22:57;;;;;;;7.22;6.38;;;;;;;;;;5085792;28;20055;-31
2021/12/16 03:25:46;;;;;;;8.02;6.57;;;;;;;;;;5085619;28;20775;-29
2021/12/16 03:38:11;;;;;;;8.95;6.78;;;;;;;;;;5066679;28;20032;-32
2021/12/16 03:40:37;;;;;;;7.45;6.18;;;;;;;;;;5085730;28;20024;-33
2021/12/16 03:43:14;;;;;;;7.32;6.38;;;;;;;;;;5085805;28;20036;-32
2021/12/16 03:48:39;;;;;;;7.47;6.57;;;;;;;;;;5085371;28;20512;-33
2021/12/16 03:51:16;;;;;;;8.57;7.05;;;;;;;;;;5085173;28;20035;-32
2021/12/16 03:53:43;;;;;;;7.45;6.43;;;;;;;;;;5085256;28;20084;-33
2021/12/16 03:56:09;;;;;;;7.60;6.07;;;;;;;;;;5084416;28;20032;-32
2021/12/16 03:58:34;;;;;;;8.55;6.53;;;;;;;;;;5085242;28;20020;-35
2021/12/16 04:01:02;;;;;;;8.13;6.60;;;;;;;;;;5084908;28;20024;-29
2021/12/16 04:03:27;;;;;;;9.27;6.18;;;;;;;;;;5084587;28;20071;-30
2021/12/16 04:05:53;;;;;;;7.43;6.15;;;;;;;;;;5085385;28;20051;-27
2021/12/16 04:08:18;;;;;;;7.88;6.63;;;;;;;;;;5083402;28;20027;-28
2021/12/16 04:11:06;;;;;;;7.45;6.13;;;;;;;;;;5066169;28;20464;-29
2021/12/16 04:13:41;;;;;;;8.70;6.43;;;;;;;;;;5085243;28;20069;-29
2021/12/16 04:16:07;;;;;;;7.57;6.40;;;;;;;;;;5067918;28;20042;-32
2021/12/16 04:18:33;;;;;;;7.57;6.28;;;;;;;;;;5084564;28;20032;-27
2021/12/16 04:20:59;;;;;;;8.73;6.55;;;;;;;;;;5083844;28;20024;-29
2021/12/16 04:23:24;;;;;;;7.00;5.70;;;;;;;;;;5084862;28;20424;-29
2021/12/16 04:25:50;;;;;;;7.68;6.30;;;;;;;;;;5084299;28;20106;-29
2021/12/16 04:28:23;;;;;;;8.75;6.63;;;;;;;;;;5084889;28;20039;-27
2021/12/16 04:30:49;;;;;;;8.15;6.53;;;;;;;;;;5084160;28;20044;-29
2021/12/16 04:33:15;;;;;;;9.00;6.85;;;;;;;;;;5084709;28;20035;-28
2021/12/16 04:35:40;;;;;;;8.55;7.10;;;;;;;;;;5084726;28;20498;-28
2021/12/16 04:38:07;;;;;;;7.85;6.30;;;;;;;;;;5084640;28;20028;-31
2021/12/16 04:40:35;;;;;;;9.27;6.80;;;;;;;;;;5084651;28;20032;-32
2021/12/16 04:43:02;;;;;;;7.70;6.07;;;;;;;;;;5084526;28;20414;-28
2021/12/16 04:45:27;;;;;;;7.05;5.90;;;;;;;;;;5084196;28;20060;-29
2021/12/16 04:47:53;;;;;;;7.70;6.15;;;;;;;;;;5083548;28;20109;-33
2021/12/16 04:50:19;;;;;;;8.65;6.85;;;;;;;;;;5066829;28;20020;-28
2021/12/16 04:52:44;;;;;;;7.63;6.15;;;;;;;;;;5084725;28;20391;-29
2021/12/16 04:55:11;;;;;;;8.55;6.85;;;;;;;;;;5084911;28;20028;-28
2021/12/16 04:57:36;;;;;;;8.38;6.47;;;;;;;;;;5084833;28;20425;-31
2021/12/16 05:00:07;;;;;;;8.45;6.22;;;;;;;;;;5084027;28;20032;-28
2021/12/16 05:02:32;;;;;;;8.00;6.38;;;;;;;;;;5083367;28;20107;-27
2021/12/16 05:04:58;;;;;;;6.93;5.85;;;;;;;;;;5083774;28;20184;-29
2021/12/16 05:07:24;;;;;;;7.88;6.53;;;;;;;;;;5084873;28;20025;-31
2021/12/16 05:12:22;;;;;;;7.63;5.85;;;;;;;;;;5084853;28;20036;-27
2021/12/16 05:14:48;;;;;;;7.05;5.72;;;;;;;;;;5084958;28;20083;-32
2021/12/16 05:17:35;;;;;;;8.15;6.57;;;;;;;;;;5084551;28;20048;-28
2021/12/16 05:20:06;;;;;;;7.40;5.97;;;;;;;;;;5089238;28;20114;-29
2021/12/16 05:25:26;;;;;;;8.95;6.80;;;;;;;;;;5086945;28;20035;-27
2021/12/16 05:27:52;;;;;;;7.75;5.90;;;;;;;;;;5087342;28;20016;-28
2021/12/16 05:30:18;;;;;;;7.00;6.13;;;;;;;;;;5087735;28;20066;-30
2021/12/16 05:32:45;;;;;;;6.95;5.78;;;;;;;;;;5087665;28;20460;-29
2021/12/16 05:35:14;;;;;;;7.90;6.22;;;;;;;;;;5088303;28;20031;-31
2021/12/16 05:37:39;;;;;;;8.68;6.63;;;;;;;;;;5066831;28;20028;-29
2021/12/16 05:40:05;;;;;;;7.47;6.32;;;;;;;;;;5067665;28;20089;-31
2021/12/16 05:42:30;;;;;;;8.20;6.07;;;;;;;;;;5075074;28;20107;-28
2021/12/16 05:44:56;;;;;;;8.57;6.32;;;;;;;;;;5087093;28;20024;-29
2021/12/16 05:47:21;;;;;;;8.23;6.10;;;;;;;;;;5081138;28;20023;-29
2021/12/16 05:49:47;;;;;;;11.05;6.90;;;;;;;;;;5077791;28;20031;-30
2021/12/16 05:52:12;;;;;;;12.75;6.53;;;;;;;;;;5087719;28;20547;-27
2021/12/16 05:54:38;;;;;;;26.75;6.57;;;;;;;;;;5085023;28;20051;-27
2021/12/16 05:57:03;;;;;;;21.52;8.65;;;;;;;;;;5085923;28;20039;-27
2021/12/16 05:59:29;;;;;;;15.13;7.75;;;;;;;;;;5087517;28;20086;-34
2021/12/16 06:01:55;;;;;;;18.63;7.22;;;;;;;;;;5086030;28;20053;-31
2021/12/16 06:04:20;;;;;;;12.05;7.55;;;;;;;;;;5086702;28;20113;-29
2021/12/16 06:06:46;;;;;;;20.17;7.75;;;;;;;;;;5085582;28;20268;-31
2021/12/16 06:09:11;;;;;;;14.55;7.00;;;;;;;;;;5085380;28;20027;-32
2021/12/16 06:11:40;;;;;;;16.55;8.30;;;;;;;;;;5086164;28;20028;-30
2021/12/16 06:27:34;;;;;;;10.13;7.63;;;;;;;;;;5069420;28;20043;-28
2021/12/16 06:30:00;;;;;;;11.90;7.07;;;;;;;;;;5083764;28;20044;-30
2021/12/16 06:32:26;;;;;;;14.50;7.05;;;;;;;;;;5085297;28;20437;-30
2021/12/16 06:34:53;;;;;;;11.93;7.32;;;;;;;;;;5085789;28;20036;-34
2021/12/16 06:37:18;;;;;;;12.88;6.95;;;;;;;;;;5082001;28;20497;-30
2021/12/16 06:39:44;;;;;;;9.45;6.78;;;;;;;;;;5066118;28;20135;-30
2021/12/16 06:42:10;;;;;;;7.60;6.30;;;;;;;;;;5066523;28;20028;-33
2021/12/16 06:44:42;;;;;;;9.70;7.18;;;;;;;;;;5066182;28;20122;-30
2021/12/16 06:47:13;;;;;;;8.73;6.88;;;;;;;;;;5065295;28;20028;-31
2021/12/16 06:49:41;;;;;;;8.35;6.82;;;;;;;;;;5066488;28;20543;-31
2021/12/16 06:52:10;;;;;;;9.88;6.65;;;;;;;;;;5066531;28;20091;-31
2021/12/16 06:55:05;;;;;;;11.85;6.85;;;;;;;;;;5066152;28;20098;-29
2021/12/16 07:00:21;;;;;;;7.03;5.80;;;;;;;;;;5065813;28;20025;-30
2021/12/16 07:02:58;;;;;;;10.38;6.80;;;;;;;;;;5065422;28;20668;-31
2021/12/16 07:05:28;;;;;;;7.68;5.70;;;;;;;;;;5065783;28;20521;-30
2021/12/16 07:07:53;;;;;;;9.48;6.30;;;;;;;;;;5065788;28;20513;-31
2021/12/16 07:10:19;;;;;;;10.63;6.35;;;;;;;;;;5065939;28;20025;-31
2021/12/16 07:12:49;;;;;;;8.80;6.30;;;;;;;;;;5064603;28;20043;-29
2021/12/16 07:15:21;;;;;;;9.75;6.40;;;;;;;;;;5066140;28;20017;-29
2021/12/16 07:17:46;;;;;;;10.20;6.25;;;;;;;;;;5065813;28;20129;-31
2021/12/16 07:20:14;;;;;;;9.40;6.20;;;;;;;;;;5065810;28;20110;-32
2021/12/16 07:22:39;;;;;;;7.30;5.90;;;;;;;;;;5065634;28;20031;-32
2021/12/16 07:25:06;;;;;;;7.43;5.57;;;;;;;;;;5065444;28;20039;-32
2021/12/16 07:27:34;;;;;;;7.65;5.43;;;;;;;;;;5064970;28;20020;-30
2021/12/16 07:30:01;;;;;;;7.95;6.05;;;;;;;;;;5065365;28;20197;-28
2021/12/16 07:32:26;;;;;;;7.10;5.75;;;;;;;;;;5065756;28;20073;-31
2021/12/16 07:34:52;;;;;;;9.00;6.10;;;;;;;;;;5065440;28;20437;-31
2021/12/16 07:37:17;;;;;;;7.43;5.65;;;;;;;;;;5065084;28;20040;-33
2021/12/16 07:39:45;;;;;;;8.95;5.85;;;;;;;;;;5065376;28;20060;-30
2021/12/16 07:42:12;;;;;;;7.78;5.68;;;;;;;;;;5063493;28;20017;-28
2021/12/16 07:44:38;;;;;;;8.77;5.65;;;;;;;;;;5064913;28;20028;-32
2021/12/16 07:47:06;;;;;;;7.20;5.45;;;;;;;;;;5064988;28;20434;-30
2021/12/16 07:49:34;;;;;;;6.85;5.88;;;;;;;;;;5064851;28;20502;-30
2021/12/16 07:52:00;;;;;;;6.03;5.13;;;;;;;;;;5064649;28;20351;-29
2021/12/16 07:54:26;;;;;;;6.63;5.25;;;;;;;;;;5064828;28;20032;-31
2021/12/16 07:56:54;;;;;;;7.20;5.93;;;;;;;;;;5064237;28;20442;-32
2021/12/16 07:59:20;;;;;;;8.65;5.97;;;;;;;;;;5079154;28;20031;-29
2021/12/16 08:01:46;;;;;;;7.40;5.97;;;;;;;;;;5085340;28;20051;-31
2021/12/16 08:04:19;;;;;;;7.45;5.28;;;;;;;;;;5085307;28;20514;-36
2021/12/16 08:06:46;;;;;;;7.35;5.57;;;;;;;;;;5084774;28;20028;-28
2021/12/16 08:09:12;;;;;;;6.55;5.30;;;;;;;;;;5084262;28;20559;-32
2021/12/16 08:11:38;;;;;;;6.57;5.63;;;;;;;;;;5085188;28;20035;-32
2021/12/16 08:14:04;;;;;;;6.72;5.43;;;;;;;;;;5084538;28;20031;-30
2021/12/16 08:16:30;;;;;;;7.10;5.55;;;;;;;;;;5085294;28;20024;-33
2021/12/16 08:18:56;;;;;;;6.78;5.25;;;;;;;;;;5083853;28;20028;-31
2021/12/16 08:21:24;;;;;;;6.55;5.47;;;;;;;;;;5084400;28;20028;-31
2021/12/16 08:23:50;;;;;;;8.07;5.63;;;;;;;;;;5054923;28;20102;-29
2021/12/16 08:26:16;;;;;;;6.80;5.75;;;;;;;;;;5080245;28;20034;-29
2021/12/16 08:28:42;;;;;;;6.90;5.63;;;;;;;;;;5084587;28;20032;-31
2021/12/16 08:31:08;;;;;;;7.20;5.80;;;;;;;;;;5083358;28;20114;-32
2021/12/16 08:33:33;;;;;;;7.28;5.53;;;;;;;;;;5084093;28;20074;-32
2021/12/16 08:35:59;;;;;;;7.63;5.70;;;;;;;;;;5084754;28;20028;-35
2021/12/16 08:38:25;;;;;;;6.63;5.32;;;;;;;;;;5084949;28;20031;-34
2021/12/16 08:40:52;;;;;;;10.68;5.93;;;;;;;;;;5085084;28;20115;-29
2021/12/16 08:43:18;;;;;;;6.78;5.43;;;;;;;;;;5083639;28;20521;-28
2021/12/16 08:45:44;;;;;;;8.65;5.65;;;;;;;;;;5064805;28;20035;-29
2021/12/16 08:48:09;;;;;;;7.03;5.32;;;;;;;;;;5062041;28;20419;-28
2021/12/16 08:50:37;;;;;;;8.27;5.35;;;;;;;;;;5080906;28;20027;-29
2021/12/16 08:53:03;;;;;;;11.27;5.60;;;;;;;;;;5082530;28;20040;-29
2021/12/16 08:55:29;;;;;;;6.43;5.13;;;;;;;;;;5078783;28;20021;-32
2021/12/16 08:57:56;;;;;;;8.25;5.28;;;;;;;;;;5092339;28;20545;-33
2021/12/16 09:00:24;;;;;;;7.40;5.30;;;;;;;;;;5100845;28;20415;-32
2021/12/16 09:02:50;;;;;;;6.80;5.53;;;;;;;;;;5065796;28;20054;-30
2021/12/16 09:05:15;;;;;;;6.88;5.03;;;;;;;;;;5066095;28;20028;-32
2021/12/16 09:07:45;;;;;;;7.00;4.70;;;;;;;;;;5065641;28;20028;-29
2021/12/16 09:10:12;;;;;;;8.07;4.68;;;;;;;;;;5071124;28;20421;-30
2021/12/16 09:12:51;;;;;;;6.40;4.63;;;;;;;;;;5079599;28;20107;-31
2021/12/16 09:15:16;;;;;;;7.32;5.45;;;;;;;;;;5073281;28;20033;-29
2021/12/16 09:17:42;;;;;;;7.82;5.18;;;;;;;;;;5065297;28;20028;-31
2021/12/16 09:20:08;;;;;;;6.38;4.82;;;;;;;;;;5065600;28;20033;-32
2021/12/16 09:22:33;;;;;;;9.27;4.93;;;;;;;;;;5074485;28;20063;-33
2021/12/16 09:24:59;;;;;;;6.97;5.07;;;;;;;;;;5087662;28;20127;-32
2021/12/16 09:27:26;;;;;;;7.28;5.40;;;;;;;;;;5087719;28;20094;-28
2021/12/16 09:29:52;;;;;;;5.90;4.80;;;;;;;;;;5078352;28;20070;-31
2021/12/16 09:32:18;;;;;;;5.70;4.93;;;;;;;;;;5090423;28;20375;-34
2021/12/16 09:34:44;;;;;;;5.60;4.60;;;;;;;;;;5067022;28;20747;-31
2021/12/16 09:37:09;;;;;;;7.75;4.93;;;;;;;;;;5065467;28;20384;-33
2021/12/16 09:39:36;;;;;;;10.43;4.97;;;;;;;;;;5077453;28;20036;-33
2021/12/16 09:42:02;;;;;;;10.43;4.95;;;;;;;;;;5095288;28;20161;-30
2021/12/16 09:44:28;;;;;;;5.38;4.63;;;;;;;;;;5091035;28;20621;-35
2021/12/16 09:46:55;;;;;;;8.65;4.85;;;;;;;;;;5101083;28;20463;-30
2021/12/16 09:49:21;;;;;;;5.63;4.63;;;;;;;;;;5106115;28;20030;-32
2021/12/16 09:51:47;;;;;;;6.40;4.60;;;;;;;;;;5105611;28;20293;-30
2021/12/16 09:54:15;;;;;;;6.82;4.93;;;;;;;;;;5086716;28;20130;-32
2021/12/16 09:56:42;;;;;;;8.18;5.28;;;;;;;;;;5087445;28;20028;-32
2021/12/16 09:59:10;;;;;;;8.82;4.82;;;;;;;;;;5083500;28;20060;-31
2021/12/16 10:01:36;;;;;;;5.47;4.55;;;;;;;;;;5095783;28;20654;-30
2021/12/16 10:04:04;;;;;;;6.00;4.55;;;;;;;;;;5100086;28;20128;-28
2021/12/16 10:06:31;;;;;;;5.35;4.65;;;;;;;;;;5080184;28;20071;-30
2021/12/16 10:08:59;;;;;;;6.95;4.97;;;;;;;;;;5072242;28;20123;-32
2021/12/16 10:11:25;;;;;;;7.00;4.82;;;;;;;;;;5082267;28;20108;-32
2021/12/16 10:19:10;;;;;;;6.40;4.40;;;;;;;;;;5071540;28;20229;-31
2021/12/16 10:21:36;;;;;;;5.10;4.47;;;;;;;;;;5082931;28;20114;-30
2021/12/16 10:24:02;;;;;;;5.80;4.43;;;;;;;;;;5083851;28;20064;-31
2021/12/16 10:26:28;;;;;;;6.00;4.90;;;;;;;;;;5095844;28;20059;-30
2021/12/16 10:28:58;;;;;;;5.43;4.05;;;;;;;;;;5048253;28;20059;-30
2021/12/16 10:31:27;;;;;;;5.07;4.30;;;;;;;;;;5086769;28;20024;-33
2021/12/16 10:34:00;;;;;;;6.80;4.30;;;;;;;;;;5084731;28;20057;-29
2021/12/16 10:36:40;;;;;;;5.93;4.53;;;;;;;;;;5083782;28;20031;-32
2021/12/16 10:39:17;;;;;;;5.38;4.20;;;;;;;;;;5084538;28;20134;-29
2021/12/16 10:41:47;;;;;;;9.57;4.28;;;;;;;;;;5088357;28;20029;-29
2021/12/16 10:44:20;;;;;;;6.15;4.78;;;;;;;;;;5083627;28;20468;-29
2021/12/16 10:47:03;;;;;;;6.32;4.63;;;;;;;;;;5083670;28;20084;-30
2021/12/16 10:49:30;;;;;;;5.20;4.00;;;;;;;;;;5068749;28;20563;-29
2021/12/16 10:52:22;;;;;;;6.03;4.85;;;;;;;;;;5077941;28;20032;-31
2021/12/16 10:54:51;;;;;;;6.97;4.07;;;;;;;;;;5055654;28;20044;-30
2021/12/16 10:57:18;;;;;;;6.78;4.20;;;;;;;;;;5063569;28;20100;-32
2021/12/16 11:00:08;;;;;;;6.32;3.80;;;;;;;;;;5063635;28;20038;-31
2021/12/16 11:02:35;;;;;;;4.88;4.03;;;;;;;;;;5052943;28;20040;-34
2021/12/16 11:05:18;;;;;;;4.53;3.85;;;;;;;;;;5063911;28;20651;-32
2021/12/16 11:07:49;;;;;;;6.05;4.25;;;;;;;;;;5066898;28;20032;-32
2021/12/16 11:10:33;;;;;;;4.80;3.75;;;;;;;;;;5083846;28;20097;-30
2021/12/16 11:13:07;;;;;;;5.25;4.15;;;;;;;;;;5082081;28;20056;-29
2021/12/16 11:15:53;;;;;;;6.15;4.57;;;;;;;;;;5080366;28;20031;-27
2021/12/16 11:18:23;;;;;;;4.88;3.97;;;;;;;;;;5085653;28;20038;-33
2021/12/16 11:20:56;;;;;;;5.15;3.90;;;;;;;;;;5084587;28;20036;-30
2021/12/16 11:23:21;;;;;;;;;;;;;;;;;;5080308;28;20093;-32
2021/12/16 11:25:54;;;;;;;4.72;4.03;;;;;;;;;;5079936;28;19916;-28
2021/12/16 11:28:39;;;;;;;6.05;4.07;;;;;;;;;;5082695;28;20035;-29
2021/12/16 11:31:12;;;;;;;5.40;4.18;;;;;;;;;;5083405;28;20035;-31
2021/12/16 11:33:42;;;;;;;4.43;3.58;;;;;;;;;;5062904;28;20024;-30
2021/12/16 11:36:13;;;;;;;10.15;4.47;;;;;;;;;;5063236;28;20502;-31
2021/12/16 11:38:44;;;;;;;12.80;3.72;;;;;;;;;;5079211;28;20557;-32
2021/12/16 11:41:11;;;;;;;10.85;4.07;;;;;;;;;;5083716;28;20048;-34
2021/12/16 11:43:51;;;;;;;8.43;3.80;;;;;;;;;;5083208;28;20046;-32
2021/12/16 11:46:19;;;;;;;9.32;4.43;;;;;;;;;;5063743;28;20046;-28
2021/12/16 11:48:44;;;;;;;6.95;3.80;;;;;;;;;;5062772;28;20031;-32
2021/12/16 11:51:13;;;;;;;13.00;4.85;;;;;;;;;;5063250;28;20697;-33
2021/12/16 11:53:53;;;;;;;12.25;5.15;;;;;;;;;;5062814;28;20037;-28
2021/12/16 11:56:19;;;;;;;13.95;5.70;;;;;;;;;;5062914;28;20437;-30
2021/12/16 11:58:45;;;;;;;12.80;5.68;;;;;;;;;;5062787;28;20028;-30
2021/12/16 12:01:15;;;;;;;12.75;4.97;;;;;;;;;;5067613;28;20031;-28
2021/12/16 12:03:40;;;;;;;13.45;5.38;;;;;;;;;;5083523;28;20047;-33
2021/12/16 12:06:06;;;;;;;26.50;5.88;;;;;;;;;;5083135;28;20101;-27
2021/12/16 12:08:32;;;;;;;16.40;5.10;;;;;;;;;;5038789;28;20067;-30
2021/12/16 12:11:06;;;;;;;11.50;4.78;;;;;;;;;;5081755;28;20092;-30
2021/12/16 12:13:43;;;;;;;7.40;4.65;;;;;;;;;;5081915;28;20551;-31
2021/12/16 12:16:14;;;;;;;13.38;5.00;;;;;;;;;;5081959;28;20027;-29
2021/12/16 12:18:41;;;;;;;11.82;4.47;;;;;;;;;;5081850;28;20060;-31
2021/12/16 12:21:35;;;;;;;11.05;4.65;;;;;;;;;;5081818;28;20036;-34
2021/12/16 12:24:24;;;;;;;;;;;;;;;;;;5082073;28;20043;-31
2021/12/16 12:27:03;;;;;;;10.07;4.57;;;;;;;;;;5074056;28;19926;-35
2021/12/16 12:29:37;;;;;;;12.77;4.63;;;;;;;;;;5087726;28;20109;-32
2021/12/16 12:32:20;;;;;;;7.00;4.15;;;;;;;;;;5088889;28;20178;-32
2021/12/16 12:34:47;;;;;;;8.90;4.38;;;;;;;;;;5067307;28;20029;-29
2021/12/16 12:37:15;;;;;;;7.28;4.07;;;;;;;;;;5068782;28;20040;-30
2021/12/16 12:39:43;;;;;;;6.93;3.78;;;;;;;;;;5069079;28;20036;-31
2021/12/16 12:42:09;;;;;;;9.85;4.72;;;;;;;;;;5069512;28;20707;-32
2021/12/16 12:44:34;;;;;;;6.35;4.07;;;;;;;;;;5068780;28;20029;-33
2021/12/16 12:47:01;;;;;;;11.25;4.28;;;;;;;;;;5087024;28;20028;-30
2021/12/16 12:49:27;;;;;;;6.43;3.78;;;;;;;;;;5088871;28;20028;-30
2021/12/16 12:52:00;;;;;;;6.13;3.92;;;;;;;;;;5089455;28;20100;-31
2021/12/16 12:54:28;;;;;;;6.88;3.92;;;;;;;;;;5088315;28;20115;-30
2021/12/16 12:56:56;;;;;;;6.95;3.85;;;;;;;;;;5089082;28;20569;-29
2021/12/16 12:59:38;;;;;;;6.40;3.85;;;;;;;;;;5089599;28;20407;-30
2021/12/16 13:02:15;;;;;;;6.50;4.07;;;;;;;;;;5072966;28;20551;-31
2021/12/16 13:04:55;;;;;;;5.32;3.75;;;;;;;;;;5088763;28;20031;-37
2021/12/16 13:07:34;;;;;;;9.10;4.10;;;;;;;;;;5089360;28;20028;-31
2021/12/16 13:10:06;;;;;;;5.85;3.90;;;;;;;;;;5088551;28;20589;-28
2021/12/16 13:13:04;;;;;;;5.90;3.83;;;;;;;;;;5088055;28;20042;-29
2021/12/16 13:15:47;;;;;;;9.23;4.30;;;;;;;;;;5088938;28;20043;-32
2021/12/16 13:23:52;;;;;;;5.75;3.78;;;;;;;;;;5088989;28;20030;-31
2021/12/16 13:28:58;;;;;;;5.47;3.65;;;;;;;;;;5087707;28;20616;-29
2021/12/16 13:34:51;;;;;;;5.28;3.60;;;;;;;;;;5059100;28;20124;-30
2021/12/16 13:37:22;;;;;;;5.00;3.80;;;;;;;;;;5074312;28;20043;-32
2021/12/16 13:39:55;;;;;;;4.32;3.42;;;;;;;;;;5086347;28;20036;-33
2021/12/16 13:42:20;;;;;;;6.10;3.95;;;;;;;;;;5085707;28;20025;-31
2021/12/16 13:45:04;;;;;;;7.95;3.65;;;;;;;;;;5066862;28;20043;-30
2021/12/16 13:47:54;;;;;;;4.68;3.65;;;;;;;;;;5085487;28;20437;-31
2021/12/16 14:10:11;;;;;;;5.50;3.80;;;;;;;;;;5085297;28;20039;-31
2021/12/16 14:40:23;;;;;;;6.50;4.78;;;;;;;;;;5064662;28;20024;-31
2021/12/16 14:50:44;;;;;;;7.47;5.45;;;;;;;;;;5001257;28;20029;-30
2021/12/16 14:53:25;;;;;;;6.57;4.97;;;;;;;;;;5040432;28;20152;-29
2021/12/16 14:55:52;;;;;;;7.30;5.03;;;;;;;;;;5064420;28;20070;-33
2021/12/16 14:58:19;;;;;;;7.13;5.43;;;;;;;;;;5052490;28;20058;-30
2021/12/16 15:00:49;;;;;;;6.75;5.25;;;;;;;;;;5084066;28;20036;-30
2021/12/16 15:03:23;;;;;;;5.82;4.97;;;;;;;;;;5084142;28;20032;-29
2021/12/16 15:05:50;;;;;;;6.25;4.82;;;;;;;;;;5083939;28;20029;-33
2021/12/16 15:08:31;;;;;;;6.53;5.35;;;;;;;;;;5083780;28;20036;-29
2021/12/16 15:10:56;;;;;;;6.07;5.18;;;;;;;;;;5083986;28;20183;-33
2021/12/16 15:13:32;;;;;;;6.72;5.30;;;;;;;;;;5083786;28;20110;-33
2021/12/16 15:16:25;;;;;;;5.80;4.93;;;;;;;;;;5082967;28;20042;-30
2021/12/16 15:42:59;;;;;;;7.85;6.15;;;;;;;;;;5083104;28;20539;-28
2021/12/16 15:45:44;;;;;;;8.88;6.38;;;;;;;;;;5082623;28;20062;-28
2021/12/16 15:48:13;;;;;;;8.98;6.32;;;;;;;;;;5083778;28;20420;-28
2021/12/16 15:50:48;;;;;;;8.40;6.78;;;;;;;;;;5083275;28;20410;-30
2021/12/16 15:53:19;;;;;;;9.07;7.15;;;;;;;;;;5083439;28;20024;-32
2021/12/16 15:55:50;;;;;;;9.68;6.32;;;;;;;;;;5083104;28;20084;-32
2021/12/16 15:58:21;;;;;;;8.75;6.70;;;;;;;;;;5083317;28;20024;-30
2021/12/16 16:00:52;;;;;;;9.10;6.70;;;;;;;;;;5082996;28;20028;-29
2021/12/16 16:03:18;;;;;;;9.25;6.43;;;;;;;;;;5082499;28;20024;-29
2021/12/16 16:05:52;;;;;;;7.60;6.38;;;;;;;;;;5083235;28;20833;-27
2021/12/16 16:08:19;;;;;;;8.82;6.65;;;;;;;;;;5083063;28;20556;-33
2021/12/16 16:10:46;;;;;;;8.02;6.50;;;;;;;;;;5082814;28;20409;-28
2021/12/16 16:13:21;;;;;;;9.02;6.70;;;;;;;;;;5082745;28;20032;-34
2021/12/16 16:15:49;;;;;;;8.93;6.88;;;;;;;;;;5083281;28;20020;-29
2021/12/16 16:21:19;;;;;;;8.77;6.32;;;;;;;;;;5083061;28;20032;-29
2021/12/16 16:23:48;;;;;;;8.30;6.28;;;;;;;;;;5082592;28;20779;-32
2021/12/16 16:26:16;;;;;;;8.23;6.38;;;;;;;;;;5082628;28;20036;-29
2021/12/16 16:28:43;;;;;;;8.27;6.53;;;;;;;;;;5064400;28;20031;-32
2021/12/16 16:31:10;;;;;;;8.23;6.93;;;;;;;;;;5082599;28;20477;-29
2021/12/16 16:33:36;;;;;;;7.97;6.43;;;;;;;;;;5082802;28;20418;-31
2021/12/16 16:36:06;;;;;;;8.63;6.32;;;;;;;;;;5082421;28;20021;-30
2021/12/16 16:38:39;;;;;;;7.60;6.30;;;;;;;;;;5082871;28;20110;-29
2021/12/16 16:41:13;;;;;;;7.38;5.85;;;;;;;;;;5082452;28;20025;-29
2021/12/16 16:44:00;;;;;;;9.23;6.78;;;;;;;;;;5083579;28;20520;-28
2021/12/16 16:46:32;;;;;;;10.18;6.65;;;;;;;;;;5064182;28;20097;-29
2021/12/16 16:51:41;;;;;;;8.35;6.78;;;;;;;;;;5082139;28;20036;-31
2021/12/16 16:54:11;;;;;;;7.53;6.25;;;;;;;;;;5081982;28;20411;-31
2021/12/16 16:56:53;;;;;;;8.07;6.38;;;;;;;;;;5081591;28;20093;-32
2021/12/16 16:59:49;;;;;;;8.27;6.40;;;;;;;;;;5082714;28;20042;-29
2021/12/16 17:02:17;;;;;;;8.07;6.28;;;;;;;;;;5046397;28;20064;-31
2021/12/16 17:04:43;;;;;;;8.48;6.43;;;;;;;;;;5082836;28;20105;-29
2021/12/16 17:07:09;;;;;;;8.32;6.47;;;;;;;;;;5082189;28;20032;-30
2021/12/16 17:09:36;;;;;;;8.60;6.30;;;;;;;;;;5082563;28;20035;-34
2021/12/16 17:12:08;;;;;;;8.00;6.55;;;;;;;;;;5082827;28;20032;-32
2021/12/16 17:14:40;;;;;;;8.07;6.25;;;;;;;;;;5065541;28;20031;-30
2021/12/16 17:17:13;;;;;;;8.57;6.33;;;;;;;;;;5085236;28;20418;-29
2021/12/16 17:19:43;;;;;;;7.40;5.80;;;;;;;;;;5068341;28;20297;-28
2021/12/16 17:22:18;;;;;;;8.60;6.18;;;;;;;;;;5085958;28;20035;-29
2021/12/16 17:24:45;;;;;;;7.78;6.05;;;;;;;;;;5085801;28;20043;-28
2021/12/16 17:27:11;;;;;;;7.18;5.85;;;;;;;;;;5085662;28;20036;-28
2021/12/16 17:29:45;;;;;;;7.85;6.28;;;;;;;;;;5086023;28;20047;-29
2021/12/16 17:32:16;;;;;;;7.57;5.82;;;;;;;;;;5066857;28;20036;-27
2021/12/16 17:34:53;;;;;;;8.45;6.40;;;;;;;;;;5084759;28;20028;-28
2021/12/16 17:37:22;;;;;;;7.22;5.70;;;;;;;;;;5085341;28;20058;-33
2021/12/16 17:39:51;;;;;;;6.93;5.72;;;;;;;;;;5085668;28;20422;-34
2021/12/16 17:42:31;;;;;;;7.43;5.90;;;;;;;;;;5085421;28;20036;-31
2021/12/16 17:44:59;;;;;;;7.60;6.07;;;;;;;;;;5085423;28;20062;-31
2021/12/16 17:47:28;;;;;;;7.65;5.72;;;;;;;;;;5085793;28;20043;-29
2021/12/16 17:49:55;;;;;;;7.85;6.50;;;;;;;;;;5080944;28;20109;-28
2021/12/16 17:52:27;;;;;;;8.13;5.88;;;;;;;;;;5079123;28;20028;-34
2021/12/16 17:55:01;;;;;;;16.45;7.05;;;;;;;;;;5084387;28;21189;-29
2021/12/16 17:57:32;;;;;;;9.02;6.40;;;;;;;;;;5082706;28;20031;-32
2021/12/16 17:59:58;;;;;;;8.88;6.25;;;;;;;;;;5067568;28;20210;-28
2021/12/16 18:02:23;;;;;;;11.75;5.82;;;;;;;;;;5085524;28;20020;-32
2021/12/16 18:04:56;;;;;;;9.77;5.72;;;;;;;;;;5079434;28;20501;-29
2021/12/16 18:07:21;;;;;;;9.43;5.97;;;;;;;;;;5073242;28;20157;-30
2021/12/16 18:09:47;;;;;;;14.73;7.07;;;;;;;;;;5071918;28;20028;-30
2021/12/16 18:12:18;;;;;;;10.60;5.95;;;;;;;;;;5071854;28;20123;-33
2021/12/16 18:14:58;;;;;;;8.05;5.90;;;;;;;;;;5075354;28;20024;-29
2021/12/16 18:17:51;;;;;;;10.85;6.05;;;;;;;;;;5070965;28;20081;-30
2021/12/16 18:20:22;;;;;;;9.75;6.20;;;;;;;;;;5069018;28;20047;-30
2021/12/16 18:22:47;;;;;;;10.07;6.03;;;;;;;;;;5080997;28;20561;-28
2021/12/16 18:25:18;;;;;;;12.93;6.38;;;;;;;;;;5083128;28;20074;-30
2021/12/16 18:27:47;;;;;;;15.23;6.00;;;;;;;;;;5083904;28;20026;-32
2021/12/16 18:30:24;;;;;;;8.45;6.05;;;;;;;;;;5082547;28;20121;-30
2021/12/16 18:32:55;;;;;;;11.55;6.25;;;;;;;;;;5083723;28;20056;-34
2021/12/16 18:35:27;;;;;;;12.88;6.32;;;;;;;;;;5083921;28;20028;-30
2021/12/16 18:37:53;;;;;;;12.65;6.82;;;;;;;;;;5083814;28;20034;-30
2021/12/16 18:40:20;;;;;;;10.27;6.38;;;;;;;;;;5076500;28;20032;-30
2021/12/16 18:42:46;;;;;;;13.60;5.80;;;;;;;;;;5083647;28;20024;-33
2021/12/16 18:45:15;;;;;;;10.20;5.70;;;;;;;;;;5070118;28;20044;-30
2021/12/16 18:47:50;;;;;;;8.75;5.85;;;;;;;;;;5082418;28;20047;-32
2021/12/16 18:55:41;;;;;;;10.40;6.40;;;;;;;;;;5083863;28;20548;-32
2021/12/16 18:58:09;;;;;;;17.33;5.82;;;;;;;;;;5083353;28;20047;-29
2021/12/16 19:00:40;;;;;;;8.32;5.60;;;;;;;;;;5083488;28;20035;-30
2021/12/16 19:03:05;;;;;;;8.68;6.10;;;;;;;;;;5082973;28;20482;-32
2021/12/16 19:05:31;;;;;;;11.07;5.65;;;;;;;;;;5082073;28;20039;-31
2021/12/16 19:07:57;;;;;;;9.23;6.03;;;;;;;;;;5087026;28;20023;-33
2021/12/16 19:10:26;;;;;;;6.90;5.45;;;;;;;;;;5083354;28;20433;-28
2021/12/16 19:12:52;;;;;;;10.57;6.22;;;;;;;;;;5074276;28;20384;-31
2021/12/16 19:15:26;;;;;;;8.23;6.03;;;;;;;;;;5081994;28;20039;-31
2021/12/16 19:17:51;;;;;;;11.27;6.10;;;;;;;;;;5083286;28;20384;-33
2021/12/16 19:20:20;;;;;;;11.05;5.93;;;;;;;;;;5083117;28;20616;-33
2021/12/16 19:22:45;;;;;;;9.18;5.72;;;;;;;;;;5083150;28;20110;-32
2021/12/16 19:25:10;;;;;;;8.80;6.43;;;;;;;;;;5082533;28;20462;-30